SWA8725 KBWI-KDAL
Flight info
| Callsign | SWA8725 |
|---|---|
| Flight time | 3h 5m |
| Altitude | 36000 |
| Route | FOXHL1 OTTTO Q80 FAREV RAMRD/N0461F380 Q68 LITTR DIRRK HIBIL3 |
| Aircraft | B38M/M-SDE1FGHILORVWXY/HB1 |
Departure
| Time | 2026-04-29 18:11 |
|---|---|
| Airport | Baltimore/Washington International Thurgood Marshall Airport (KBWI) |
Arrival
| Time | 2026-04-29 21:16 |
|---|---|
| Airport | Dallas Love Field (KDAL) |
| Time | Latitude | Longitude | Altitude | Speed | Heading |
|---|---|---|---|---|---|
| 2026-04-29 17:55 | 39.17823 | -76.66662 | 158 ft | 0 kts | 262° |
| 2026-04-29 18:01 | 39.17826 | -76.66636 | 158 ft | 4 kts | 258° |
| 2026-04-29 18:01 | 39.17836 | -76.66607 | 158 ft | 4 kts | 219° |
| 2026-04-29 18:01 | 39.17855 | -76.66601 | 158 ft | 4 kts | 152° |
| 2026-04-29 18:01 | 39.17863 | -76.66607 | 158 ft | 0 kts | 147° |
| 2026-04-29 18:04 | 39.17849 | -76.66595 | 163 ft | 6 kts | 146° |
| 2026-04-29 18:05 | 39.17784 | -76.66533 | 158 ft | 16 kts | 139° |
| 2026-04-29 18:05 | 39.17717 | -76.66424 | 157 ft | 12 kts | 147° |
| 2026-04-29 18:05 | 39.17641 | -76.66463 | 157 ft | 13 kts | 215° |
| 2026-04-29 18:05 | 39.17557 | -76.66533 | 156 ft | 16 kts | 212° |
| 2026-04-29 18:06 | 39.17520 | -76.66657 | 156 ft | 17 kts | 275° |
| 2026-04-29 18:06 | 39.17522 | -76.66804 | 157 ft | 12 kts | 245° |
| 2026-04-29 18:06 | 39.17470 | -76.66886 | 156 ft | 13 kts | 258° |
| 2026-04-29 18:06 | 39.17487 | -76.67011 | 155 ft | 15 kts | 295° |
| 2026-04-29 18:07 | 39.17565 | -76.67123 | 154 ft | 19 kts | 324° |
| 2026-04-29 18:07 | 39.17679 | -76.67230 | 152 ft | 22 kts | 324° |
| 2026-04-29 18:07 | 39.17809 | -76.67350 | 151 ft | 24 kts | 324° |
| 2026-04-29 18:07 | 39.17951 | -76.67482 | 150 ft | 26 kts | 323° |
| 2026-04-29 18:08 | 39.18105 | -76.67626 | 149 ft | 28 kts | 325° |
| 2026-04-29 18:08 | 39.18262 | -76.67770 | 148 ft | 28 kts | 324° |
| 2026-04-29 18:08 | 39.18418 | -76.67915 | 149 ft | 24 kts | 324° |
| 2026-04-29 18:08 | 39.18526 | -76.68015 | 149 ft | 14 kts | 324° |
| 2026-04-29 18:09 | 39.18572 | -76.68090 | 150 ft | 11 kts | 274° |
| 2026-04-29 18:09 | 39.18527 | -76.68166 | 148 ft | 10 kts | 193° |
| 2026-04-29 18:09 | 39.18477 | -76.68146 | 146 ft | 7 kts | 144° |
| 2026-04-29 18:09 | 39.18472 | -76.68141 | 146 ft | 0 kts | 144° |
| 2026-04-29 18:10 | 39.18262 | -76.67946 | 150 ft | 78 kts | 144° |
| 2026-04-29 18:11 | 39.17616 | -76.67347 | 148 ft | 147 kts | 144° |
| 2026-04-29 18:11 | 39.16678 | -76.66469 | 482 ft | 177 kts | 142° |
| 2026-04-29 18:11 | 39.15679 | -76.65532 | 1425 ft | 180 kts | 147° |
| 2026-04-29 18:11 | 39.14526 | -76.64845 | 2214 ft | 195 kts | 172° |
| 2026-04-29 18:12 | 39.13127 | -76.65153 | 2816 ft | 216 kts | 211° |
| 2026-04-29 18:12 | 39.12174 | -76.66639 | 3852 ft | 224 kts | 250° |
| 2026-04-29 18:12 | 39.12182 | -76.68669 | 4857 ft | 239 kts | 287° |
| 2026-04-29 18:12 | 39.13201 | -76.70403 | 5807 ft | 254 kts | 319° |
| 2026-04-29 18:13 | 39.14703 | -76.71615 | 6849 ft | 258 kts | 324° |
| 2026-04-29 18:13 | 39.16174 | -76.72918 | 7761 ft | 259 kts | 319° |
| 2026-04-29 18:13 | 39.17576 | -76.74399 | 8506 ft | 268 kts | 315° |
| 2026-04-29 18:13 | 39.18829 | -76.76260 | 8545 ft | 277 kts | 292° |
| 2026-04-29 18:14 | 39.19310 | -76.78603 | 8667 ft | 272 kts | 275° |
| 2026-04-29 18:14 | 39.19650 | -76.81045 | 8825 ft | 281 kts | 278° |
| 2026-04-29 18:14 | 39.20032 | -76.83525 | 9609 ft | 282 kts | 278° |
| 2026-04-29 18:14 | 39.20408 | -76.86040 | 10480 ft | 291 kts | 277° |
| 2026-04-29 18:15 | 39.20796 | -76.88684 | 11005 ft | 310 kts | 277° |
| 2026-04-29 18:15 | 39.21204 | -76.91508 | 11440 ft | 330 kts | 277° |
| 2026-04-29 18:15 | 39.21631 | -76.94474 | 12022 ft | 343 kts | 277° |
| 2026-04-29 18:15 | 39.21996 | -76.97536 | 12783 ft | 345 kts | 269° |
| 2026-04-29 18:16 | 39.22018 | -77.00642 | 13605 ft | 348 kts | 268° |
| 2026-04-29 18:16 | 39.22066 | -77.03769 | 14356 ft | 350 kts | 268° |
| 2026-04-29 18:16 | 39.22128 | -77.06916 | 15122 ft | 352 kts | 269° |
| 2026-04-29 18:16 | 39.22187 | -77.10088 | 15802 ft | 355 kts | 266° |
| 2026-04-29 18:17 | 39.21713 | -77.13187 | 16467 ft | 354 kts | 248° |
| 2026-04-29 18:17 | 39.20464 | -77.15886 | 17104 ft | 358 kts | 231° |
| 2026-04-29 18:17 | 39.18781 | -77.18282 | 17726 ft | 362 kts | 229° |
| 2026-04-29 18:17 | 39.17046 | -77.20669 | 18335 ft | 366 kts | 229° |
| 2026-04-29 18:18 | 39.15281 | -77.23053 | 18887 ft | 369 kts | 229° |
| 2026-04-29 18:18 | 39.13487 | -77.25450 | 19414 ft | 373 kts | 229° |
| 2026-04-29 18:18 | 39.11671 | -77.27856 | 19962 ft | 376 kts | 229° |
| 2026-04-29 18:18 | 39.09840 | -77.30271 | 20476 ft | 379 kts | 229° |
| 2026-04-29 18:19 | 39.07978 | -77.32724 | 20869 ft | 386 kts | 229° |
| 2026-04-29 18:19 | 39.06111 | -77.35213 | 21422 ft | 387 kts | 232° |
| 2026-04-29 18:19 | 39.04695 | -77.38120 | 21889 ft | 385 kts | 249° |
| 2026-04-29 18:19 | 39.03838 | -77.41394 | 22375 ft | 388 kts | 253° |
| 2026-04-29 18:20 | 39.03027 | -77.44722 | 22858 ft | 391 kts | 253° |
| 2026-04-29 18:20 | 39.02231 | -77.48082 | 23369 ft | 394 kts | 254° |
| 2026-04-29 18:20 | 39.01443 | -77.51472 | 23796 ft | 397 kts | 254° |
| 2026-04-29 18:20 | 39.00658 | -77.54884 | 24215 ft | 399 kts | 254° |
| 2026-04-29 18:21 | 38.99872 | -77.58311 | 24645 ft | 401 kts | 254° |
| 2026-04-29 18:21 | 38.99080 | -77.61768 | 25101 ft | 402 kts | 254° |
| 2026-04-29 18:21 | 38.98289 | -77.65219 | 25578 ft | 403 kts | 254° |
| 2026-04-29 18:21 | 38.97493 | -77.68684 | 25989 ft | 405 kts | 254° |
| 2026-04-29 18:22 | 38.96693 | -77.72165 | 26424 ft | 407 kts | 253° |
| 2026-04-29 18:22 | 38.95888 | -77.75660 | 26818 ft | 409 kts | 253° |
| 2026-04-29 18:22 | 38.95088 | -77.79128 | 27208 ft | 411 kts | 253° |
| 2026-04-29 18:22 | 38.94263 | -77.82696 | 27565 ft | 413 kts | 253° |
| 2026-04-29 18:23 | 38.93444 | -77.86242 | 27859 ft | 416 kts | 254° |
| 2026-04-29 18:23 | 38.92624 | -77.89777 | 28111 ft | 420 kts | 254° |
| 2026-04-29 18:23 | 38.91778 | -77.93426 | 28536 ft | 421 kts | 254° |
| 2026-04-29 18:23 | 38.90949 | -77.96990 | 28872 ft | 423 kts | 253° |
| 2026-04-29 18:24 | 38.90109 | -78.00599 | 29344 ft | 422 kts | 253° |
| 2026-04-29 18:24 | 38.89269 | -78.04201 | 29922 ft | 419 kts | 254° |
| 2026-04-29 18:24 | 38.88434 | -78.07778 | 30398 ft | 417 kts | 253° |
| 2026-04-29 18:24 | 38.87604 | -78.11328 | 30869 ft | 413 kts | 254° |
| 2026-04-29 18:25 | 38.86782 | -78.14838 | 31402 ft | 408 kts | 254° |
| 2026-04-29 18:25 | 38.85971 | -78.18302 | 31936 ft | 403 kts | 255° |
| 2026-04-29 18:25 | 38.85508 | -78.21814 | 32456 ft | 398 kts | 268° |
| 2026-04-29 18:25 | 38.85486 | -78.25340 | 33027 ft | 393 kts | 267° |
| 2026-04-29 18:26 | 38.85436 | -78.28821 | 33555 ft | 388 kts | 268° |
| 2026-04-29 18:26 | 38.85403 | -78.32259 | 34051 ft | 384 kts | 268° |
| 2026-04-29 18:26 | 38.85378 | -78.35676 | 34433 ft | 381 kts | 268° |
| 2026-04-29 18:26 | 38.85090 | -78.39037 | 34731 ft | 379 kts | 257° |
| 2026-04-29 18:27 | 38.84538 | -78.42335 | 35035 ft | 379 kts | 259° |
| 2026-04-29 18:27 | 38.84011 | -78.45652 | 35291 ft | 379 kts | 259° |
| 2026-04-29 18:27 | 38.83477 | -78.48949 | 35579 ft | 377 kts | 259° |
| 2026-04-29 18:27 | 38.82937 | -78.52244 | 35821 ft | 378 kts | 259° |
| 2026-04-29 18:28 | 38.82394 | -78.55549 | 35893 ft | 379 kts | 259° |
| 2026-04-29 18:28 | 38.81308 | -78.62131 | 35904 ft | 376 kts | 258° |
| 2026-04-29 18:29 | 38.80220 | -78.68695 | 35883 ft | 376 kts | 258° |
| 2026-04-29 18:29 | 38.79129 | -78.75259 | 35900 ft | 378 kts | 258° |
| 2026-04-29 18:30 | 38.78215 | -78.80732 | 35900 ft | 377 kts | 258° |
| 2026-04-29 18:30 | 38.76937 | -78.88368 | 35932 ft | 377 kts | 258° |
| 2026-04-29 18:31 | 38.76012 | -78.93872 | 35879 ft | 375 kts | 258° |
| 2026-04-29 18:31 | 38.74904 | -79.00444 | 35902 ft | 378 kts | 258° |
| 2026-04-29 18:32 | 38.73801 | -79.06955 | 35913 ft | 376 kts | 258° |
| 2026-04-29 18:32 | 38.72130 | -79.16790 | 35884 ft | 376 kts | 258° |
| 2026-04-29 18:33 | 38.71014 | -79.23337 | 35917 ft | 377 kts | 258° |
| 2026-04-29 18:33 | 38.69935 | -79.29911 | 35898 ft | 377 kts | 258° |
| 2026-04-29 18:34 | 38.69035 | -79.35374 | 35891 ft | 376 kts | 258° |
| 2026-04-29 18:34 | 38.67766 | -79.43044 | 35904 ft | 378 kts | 258° |
| 2026-04-29 18:35 | 38.66691 | -79.49513 | 35889 ft | 377 kts | 258° |
| 2026-04-29 18:35 | 38.65610 | -79.56000 | 35917 ft | 376 kts | 258° |
| 2026-04-29 18:36 | 38.64516 | -79.62540 | 35900 ft | 376 kts | 258° |
| 2026-04-29 18:36 | 38.63410 | -79.69076 | 35899 ft | 377 kts | 258° |
| 2026-04-29 18:37 | 38.62237 | -79.75613 | 35894 ft | 377 kts | 258° |
| 2026-04-29 18:37 | 38.61069 | -79.82137 | 35899 ft | 376 kts | 257° |
| 2026-04-29 18:38 | 38.59898 | -79.88658 | 35898 ft | 376 kts | 257° |
| 2026-04-29 18:38 | 38.58724 | -79.95169 | 35909 ft | 376 kts | 257° |
| 2026-04-29 18:39 | 38.57546 | -80.01686 | 35874 ft | 376 kts | 257° |
| 2026-04-29 18:39 | 38.56365 | -80.08198 | 35911 ft | 376 kts | 257° |
| 2026-04-29 18:40 | 38.55183 | -80.14658 | 35913 ft | 376 kts | 257° |
| 2026-04-29 18:40 | 38.53981 | -80.21162 | 35868 ft | 376 kts | 257° |
| 2026-04-29 18:41 | 38.51566 | -80.34167 | 35879 ft | 376 kts | 257° |
| 2026-04-29 18:42 | 38.50352 | -80.40669 | 35877 ft | 376 kts | 257° |
| 2026-04-29 18:42 | 38.49134 | -80.47180 | 35861 ft | 377 kts | 257° |
| 2026-04-29 18:43 | 38.47910 | -80.53697 | 35878 ft | 378 kts | 257° |
| 2026-04-29 18:43 | 38.46686 | -80.60191 | 35884 ft | 376 kts | 257° |
| 2026-04-29 18:44 | 38.45466 | -80.66644 | 35867 ft | 376 kts | 257° |
| 2026-04-29 18:44 | 38.44236 | -80.73127 | 35862 ft | 376 kts | 257° |
| 2026-04-29 18:45 | 38.43004 | -80.79604 | 35883 ft | 376 kts | 257° |
| 2026-04-29 18:45 | 38.41766 | -80.86083 | 35858 ft | 376 kts | 257° |
| 2026-04-29 18:46 | 38.40528 | -80.92550 | 35876 ft | 376 kts | 257° |
| 2026-04-29 18:46 | 38.39283 | -80.99027 | 35850 ft | 376 kts | 257° |
| 2026-04-29 18:47 | 38.38036 | -81.05502 | 35866 ft | 377 kts | 257° |
| 2026-04-29 18:47 | 38.36641 | -81.11936 | 35861 ft | 377 kts | 254° |
| 2026-04-29 18:48 | 38.35095 | -81.18316 | 35851 ft | 377 kts | 254° |
| 2026-04-29 18:48 | 38.33559 | -81.24710 | 35846 ft | 378 kts | 254° |
| 2026-04-29 18:49 | 38.32034 | -81.31052 | 35856 ft | 376 kts | 255° |
| 2026-04-29 18:49 | 38.30499 | -81.37414 | 35852 ft | 376 kts | 255° |
| 2026-04-29 18:50 | 38.28963 | -81.43768 | 35859 ft | 375 kts | 255° |
| 2026-04-29 18:50 | 38.27413 | -81.50113 | 35852 ft | 375 kts | 255° |
| 2026-04-29 18:51 | 38.25860 | -81.56447 | 35872 ft | 375 kts | 255° |
| 2026-04-29 18:51 | 38.24302 | -81.62784 | 35865 ft | 375 kts | 255° |
| 2026-04-29 18:52 | 38.22743 | -81.69109 | 35870 ft | 375 kts | 255° |
| 2026-04-29 18:52 | 38.21020 | -81.75367 | 35874 ft | 375 kts | 253° |
| 2026-04-29 18:53 | 38.19282 | -81.81574 | 35859 ft | 375 kts | 253° |
| 2026-04-29 18:53 | 38.17532 | -81.87824 | 35843 ft | 375 kts | 253° |
| 2026-04-29 18:54 | 38.15783 | -81.94059 | 35848 ft | 375 kts | 253° |
| 2026-04-29 18:54 | 38.14029 | -82.00301 | 35855 ft | 375 kts | 253° |
| 2026-04-29 18:55 | 38.12271 | -82.06537 | 35845 ft | 375 kts | 253° |
| 2026-04-29 18:55 | 38.10506 | -82.12786 | 35856 ft | 376 kts | 252° |
| 2026-04-29 18:56 | 38.08740 | -82.19024 | 35865 ft | 376 kts | 253° |
| 2026-04-29 18:56 | 38.06970 | -82.25258 | 35858 ft | 375 kts | 253° |
| 2026-04-29 18:57 | 38.05200 | -82.31481 | 35854 ft | 375 kts | 252° |
| 2026-04-29 18:57 | 38.03424 | -82.37710 | 35858 ft | 375 kts | 253° |
| 2026-04-29 18:58 | 38.01656 | -82.43894 | 35867 ft | 375 kts | 253° |
| 2026-04-29 18:58 | 37.99881 | -82.50094 | 35860 ft | 374 kts | 253° |
| 2026-04-29 18:59 | 37.98098 | -82.56295 | 35841 ft | 374 kts | 253° |
| 2026-04-29 18:59 | 37.96310 | -82.62488 | 35874 ft | 375 kts | 253° |
| 2026-04-29 19:00 | 37.94520 | -82.68679 | 35869 ft | 374 kts | 253° |
| 2026-04-29 19:00 | 37.92728 | -82.74866 | 35882 ft | 374 kts | 253° |
| 2026-04-29 19:01 | 37.90934 | -82.81042 | 35894 ft | 372 kts | 253° |
| 2026-04-29 19:01 | 37.89122 | -82.87162 | 35860 ft | 371 kts | 253° |
| 2026-04-29 19:02 | 37.87602 | -82.92251 | 35875 ft | 372 kts | 253° |
| 2026-04-29 19:02 | 37.85451 | -82.99400 | 35868 ft | 372 kts | 253° |
| 2026-04-29 19:03 | 37.83611 | -83.05502 | 35865 ft | 371 kts | 253° |
| 2026-04-29 19:03 | 37.81767 | -83.11604 | 35879 ft | 371 kts | 253° |
| 2026-04-29 19:04 | 37.79919 | -83.17705 | 35905 ft | 371 kts | 253° |
| 2026-04-29 19:04 | 37.78088 | -83.23741 | 35881 ft | 369 kts | 253° |
| 2026-04-29 19:05 | 37.76336 | -83.29835 | 35828 ft | 369 kts | 254° |
| 2026-04-29 19:05 | 37.74577 | -83.35936 | 35888 ft | 370 kts | 254° |
| 2026-04-29 19:06 | 37.72814 | -83.42029 | 35889 ft | 369 kts | 254° |
| 2026-04-29 19:07 | 37.70168 | -83.51155 | 35879 ft | 368 kts | 254° |
| 2026-04-29 19:07 | 37.68401 | -83.57227 | 35881 ft | 368 kts | 254° |
| 2026-04-29 19:08 | 37.66630 | -83.63300 | 35887 ft | 369 kts | 254° |
| 2026-04-29 19:08 | 37.64856 | -83.69371 | 35882 ft | 369 kts | 254° |
| 2026-04-29 19:09 | 37.63089 | -83.75405 | 35888 ft | 368 kts | 254° |
| 2026-04-29 19:09 | 37.61309 | -83.81469 | 35890 ft | 369 kts | 254° |
| 2026-04-29 19:10 | 37.59526 | -83.87532 | 35892 ft | 369 kts | 254° |
| 2026-04-29 19:10 | 37.57737 | -83.93598 | 35921 ft | 369 kts | 254° |
| 2026-04-29 19:11 | 37.55951 | -83.99650 | 35872 ft | 367 kts | 254° |
| 2026-04-29 19:11 | 37.54162 | -84.05685 | 35926 ft | 368 kts | 254° |
| 2026-04-29 19:12 | 37.52383 | -84.11680 | 35931 ft | 367 kts | 254° |
| 2026-04-29 19:12 | 37.50590 | -84.17709 | 35932 ft | 367 kts | 254° |
| 2026-04-29 19:13 | 37.48795 | -84.23734 | 35942 ft | 368 kts | 253° |
| 2026-04-29 19:13 | 37.46919 | -84.29729 | 35957 ft | 368 kts | 253° |
| 2026-04-29 19:14 | 37.45041 | -84.35719 | 35930 ft | 367 kts | 253° |
| 2026-04-29 19:14 | 37.43165 | -84.41696 | 35919 ft | 367 kts | 253° |
| 2026-04-29 19:15 | 37.41287 | -84.47669 | 35922 ft | 367 kts | 253° |
| 2026-04-29 19:15 | 37.39406 | -84.53637 | 35940 ft | 367 kts | 253° |
| 2026-04-29 19:16 | 37.37523 | -84.59600 | 35938 ft | 367 kts | 253° |
| 2026-04-29 19:16 | 37.35636 | -84.65563 | 35934 ft | 367 kts | 253° |
| 2026-04-29 19:17 | 37.33748 | -84.71515 | 35944 ft | 366 kts | 253° |
| 2026-04-29 19:17 | 37.31868 | -84.77450 | 35935 ft | 365 kts | 254° |
| 2026-04-29 19:18 | 37.30308 | -84.82375 | 35929 ft | 366 kts | 253° |
| 2026-04-29 19:18 | 37.28424 | -84.88315 | 35932 ft | 366 kts | 253° |
| 2026-04-29 19:19 | 37.26540 | -84.94242 | 35923 ft | 365 kts | 254° |
| 2026-04-29 19:19 | 37.24652 | -85.00167 | 35927 ft | 365 kts | 253° |
| 2026-04-29 19:20 | 37.22764 | -85.06083 | 35940 ft | 365 kts | 253° |
| 2026-04-29 19:20 | 37.20900 | -85.11981 | 35926 ft | 360 kts | 257° |
| 2026-04-29 19:21 | 37.19622 | -85.17996 | 35936 ft | 359 kts | 259° |
| 2026-04-29 19:21 | 37.18368 | -85.24049 | 35947 ft | 359 kts | 260° |
| 2026-04-29 19:22 | 37.17115 | -85.30117 | 35948 ft | 359 kts | 259° |
| 2026-04-29 19:22 | 37.15861 | -85.36176 | 35948 ft | 359 kts | 259° |
| 2026-04-29 19:23 | 37.14604 | -85.42234 | 35889 ft | 359 kts | 260° |
| 2026-04-29 19:23 | 37.13349 | -85.48269 | 35949 ft | 357 kts | 260° |
| 2026-04-29 19:24 | 37.12104 | -85.54237 | 35952 ft | 356 kts | 260° |
| 2026-04-29 19:24 | 37.10846 | -85.60250 | 35976 ft | 357 kts | 260° |
| 2026-04-29 19:25 | 37.09584 | -85.66266 | 35984 ft | 357 kts | 260° |
| 2026-04-29 19:25 | 37.08318 | -85.72283 | 35998 ft | 357 kts | 260° |
| 2026-04-29 19:26 | 37.07052 | -85.78287 | 36006 ft | 357 kts | 260° |
| 2026-04-29 19:26 | 37.05781 | -85.84294 | 36018 ft | 357 kts | 260° |
| 2026-04-29 19:27 | 37.04508 | -85.90296 | 36020 ft | 357 kts | 260° |
| 2026-04-29 19:27 | 37.03232 | -85.96300 | 36018 ft | 357 kts | 260° |
| 2026-04-29 19:28 | 37.01951 | -86.02305 | 36015 ft | 357 kts | 260° |
| 2026-04-29 19:28 | 37.00670 | -86.08300 | 36012 ft | 357 kts | 259° |
| 2026-04-29 19:29 | 36.99392 | -86.14261 | 36007 ft | 357 kts | 259° |
| 2026-04-29 19:29 | 36.98103 | -86.20258 | 36001 ft | 356 kts | 259° |
| 2026-04-29 19:30 | 36.96817 | -86.26225 | 36010 ft | 355 kts | 260° |
| 2026-04-29 19:30 | 36.95527 | -86.32192 | 36016 ft | 355 kts | 259° |
| 2026-04-29 19:31 | 36.94237 | -86.38155 | 36021 ft | 355 kts | 259° |
| 2026-04-29 19:31 | 36.92921 | -86.44108 | 35995 ft | 357 kts | 256° |
| 2026-04-29 19:32 | 36.90912 | -86.49840 | 36013 ft | 360 kts | 253° |
| 2026-04-29 19:32 | 36.88869 | -86.55556 | 36012 ft | 360 kts | 253° |
| 2026-04-29 19:33 | 36.86820 | -86.61258 | 36005 ft | 359 kts | 253° |
| 2026-04-29 19:33 | 36.84775 | -86.66934 | 36001 ft | 359 kts | 253° |
| 2026-04-29 19:34 | 36.82723 | -86.72618 | 35998 ft | 359 kts | 253° |
| 2026-04-29 19:34 | 36.80670 | -86.78295 | 35992 ft | 359 kts | 253° |
| 2026-04-29 19:35 | 36.78625 | -86.83938 | 35994 ft | 359 kts | 253° |
| 2026-04-29 19:35 | 36.76567 | -86.89609 | 35992 ft | 359 kts | 253° |
| 2026-04-29 19:36 | 36.74504 | -86.95281 | 35989 ft | 359 kts | 253° |
| 2026-04-29 19:36 | 36.72447 | -87.00928 | 35995 ft | 357 kts | 253° |
| 2026-04-29 19:37 | 36.70390 | -87.06563 | 35967 ft | 357 kts | 253° |
| 2026-04-29 19:37 | 36.68338 | -87.12175 | 35994 ft | 356 kts | 253° |
| 2026-04-29 19:38 | 36.66284 | -87.17783 | 36008 ft | 356 kts | 253° |
| 2026-04-29 19:38 | 36.64227 | -87.23389 | 36033 ft | 356 kts | 253° |
| 2026-04-29 19:39 | 36.62170 | -87.28986 | 36040 ft | 356 kts | 253° |
| 2026-04-29 19:39 | 36.60108 | -87.34586 | 36044 ft | 355 kts | 253° |
| 2026-04-29 19:40 | 36.58052 | -87.40159 | 36036 ft | 353 kts | 253° |
| 2026-04-29 19:40 | 36.55997 | -87.45725 | 36025 ft | 353 kts | 253° |
| 2026-04-29 19:41 | 36.53939 | -87.51285 | 36021 ft | 354 kts | 253° |
| 2026-04-29 19:41 | 36.51881 | -87.56837 | 36027 ft | 354 kts | 253° |
| 2026-04-29 19:42 | 36.49831 | -87.62357 | 36036 ft | 354 kts | 253° |
| 2026-04-29 19:42 | 36.47757 | -87.67933 | 35965 ft | 354 kts | 253° |
| 2026-04-29 19:43 | 36.45689 | -87.73482 | 36025 ft | 354 kts | 253° |
| 2026-04-29 19:43 | 36.43639 | -87.78973 | 36029 ft | 353 kts | 253° |
| 2026-04-29 19:44 | 36.41574 | -87.84495 | 36024 ft | 352 kts | 253° |
| 2026-04-29 19:44 | 36.39505 | -87.90018 | 36025 ft | 353 kts | 253° |
| 2026-04-29 19:45 | 36.37432 | -87.95538 | 36027 ft | 353 kts | 253° |
| 2026-04-29 19:45 | 36.35360 | -88.01050 | 36024 ft | 353 kts | 253° |
| 2026-04-29 19:46 | 36.33286 | -88.06557 | 36024 ft | 352 kts | 253° |
| 2026-04-29 19:46 | 36.31205 | -88.12073 | 36009 ft | 352 kts | 253° |
| 2026-04-29 19:47 | 36.29126 | -88.17573 | 36031 ft | 352 kts | 253° |
| 2026-04-29 19:47 | 36.27060 | -88.23032 | 36034 ft | 352 kts | 253° |
| 2026-04-29 19:48 | 36.24975 | -88.28529 | 36027 ft | 352 kts | 253° |
| 2026-04-29 19:48 | 36.22889 | -88.34021 | 35996 ft | 353 kts | 253° |
| 2026-04-29 19:49 | 36.20785 | -88.39546 | 36036 ft | 355 kts | 253° |
| 2026-04-29 19:49 | 36.18679 | -88.45071 | 36039 ft | 354 kts | 253° |
| 2026-04-29 19:50 | 36.16574 | -88.50587 | 36033 ft | 354 kts | 253° |
| 2026-04-29 19:50 | 36.14467 | -88.56094 | 36037 ft | 354 kts | 252° |
| 2026-04-29 19:51 | 36.12357 | -88.61591 | 36034 ft | 354 kts | 252° |
| 2026-04-29 19:51 | 36.10244 | -88.67091 | 36032 ft | 354 kts | 252° |
| 2026-04-29 19:52 | 36.08142 | -88.72553 | 36027 ft | 354 kts | 252° |
| 2026-04-29 19:52 | 36.06022 | -88.78053 | 36034 ft | 354 kts | 252° |
| 2026-04-29 19:53 | 36.03903 | -88.83542 | 36032 ft | 354 kts | 252° |
| 2026-04-29 19:53 | 36.01777 | -88.89038 | 36023 ft | 354 kts | 252° |
| 2026-04-29 19:54 | 35.98589 | -88.97264 | 36027 ft | 354 kts | 252° |
| 2026-04-29 19:54 | 35.96458 | -89.02748 | 36028 ft | 354 kts | 252° |
| 2026-04-29 19:55 | 35.94326 | -89.08228 | 36040 ft | 354 kts | 252° |
| 2026-04-29 19:55 | 35.92193 | -89.13699 | 36047 ft | 354 kts | 252° |
| 2026-04-29 19:56 | 35.90072 | -89.19132 | 36052 ft | 354 kts | 252° |
| 2026-04-29 19:56 | 35.87931 | -89.24607 | 36064 ft | 354 kts | 252° |
| 2026-04-29 19:57 | 35.86141 | -89.29177 | 36059 ft | 353 kts | 252° |
| 2026-04-29 19:57 | 35.83655 | -89.35512 | 36039 ft | 353 kts | 252° |
| 2026-04-29 19:58 | 35.81516 | -89.40954 | 36046 ft | 353 kts | 252° |
| 2026-04-29 19:58 | 35.79375 | -89.46390 | 36042 ft | 353 kts | 252° |
| 2026-04-29 19:59 | 35.77229 | -89.51832 | 36043 ft | 353 kts | 252° |
| 2026-04-29 19:59 | 35.75082 | -89.57266 | 35978 ft | 353 kts | 252° |
| 2026-04-29 20:00 | 35.72935 | -89.62691 | 36051 ft | 356 kts | 252° |
| 2026-04-29 20:00 | 35.70759 | -89.68180 | 36047 ft | 356 kts | 252° |
| 2026-04-29 20:01 | 35.68583 | -89.73660 | 36048 ft | 356 kts | 252° |
| 2026-04-29 20:01 | 35.66405 | -89.79134 | 36049 ft | 356 kts | 252° |
| 2026-04-29 20:02 | 35.64227 | -89.84601 | 36055 ft | 356 kts | 252° |
| 2026-04-29 20:02 | 35.62767 | -89.88260 | 36036 ft | 356 kts | 252° |
| 2026-04-29 20:03 | 35.59859 | -89.95536 | 36040 ft | 356 kts | 252° |
| 2026-04-29 20:03 | 35.57673 | -90.00995 | 36049 ft | 356 kts | 252° |
| 2026-04-29 20:04 | 35.55500 | -90.06415 | 36049 ft | 356 kts | 252° |
| 2026-04-29 20:04 | 35.53311 | -90.11861 | 36044 ft | 356 kts | 252° |
| 2026-04-29 20:05 | 35.51122 | -90.17301 | 36045 ft | 356 kts | 251° |
| 2026-04-29 20:05 | 35.48928 | -90.22744 | 36026 ft | 357 kts | 251° |
| 2026-04-29 20:06 | 35.46720 | -90.28213 | 36048 ft | 357 kts | 251° |
| 2026-04-29 20:06 | 35.44512 | -90.33670 | 36056 ft | 357 kts | 251° |
| 2026-04-29 20:07 | 35.42301 | -90.39128 | 36049 ft | 357 kts | 251° |
| 2026-04-29 20:07 | 35.40451 | -90.43689 | 36053 ft | 356 kts | 251° |
| 2026-04-29 20:08 | 35.38615 | -90.48207 | 36062 ft | 356 kts | 251° |
| 2026-04-29 20:08 | 35.36050 | -90.54510 | 36061 ft | 356 kts | 251° |
| 2026-04-29 20:09 | 35.33832 | -90.59949 | 36065 ft | 356 kts | 251° |
| 2026-04-29 20:09 | 35.31617 | -90.65375 | 36070 ft | 356 kts | 251° |
| 2026-04-29 20:10 | 35.29400 | -90.70795 | 36066 ft | 356 kts | 251° |
| 2026-04-29 20:10 | 35.27175 | -90.76224 | 36069 ft | 356 kts | 251° |
| 2026-04-29 20:11 | 35.24956 | -90.81632 | 36074 ft | 355 kts | 251° |
| 2026-04-29 20:11 | 35.22734 | -90.87037 | 36056 ft | 356 kts | 251° |
| 2026-04-29 20:12 | 35.20506 | -90.92450 | 36065 ft | 356 kts | 251° |
| 2026-04-29 20:12 | 35.18279 | -90.97848 | 36065 ft | 356 kts | 251° |
| 2026-04-29 20:13 | 35.16046 | -91.03256 | 36064 ft | 356 kts | 251° |
| 2026-04-29 20:13 | 35.13810 | -91.08659 | 36065 ft | 356 kts | 251° |
| 2026-04-29 20:14 | 35.11574 | -91.14055 | 36060 ft | 356 kts | 251° |
| 2026-04-29 20:14 | 35.09352 | -91.19407 | 36062 ft | 355 kts | 250° |
| 2026-04-29 20:15 | 35.07124 | -91.24768 | 36067 ft | 355 kts | 250° |
| 2026-04-29 20:15 | 35.04887 | -91.30141 | 36066 ft | 355 kts | 250° |
| 2026-04-29 20:16 | 35.02647 | -91.35511 | 36058 ft | 355 kts | 250° |
| 2026-04-29 20:16 | 35.00408 | -91.40870 | 36061 ft | 355 kts | 250° |
| 2026-04-29 20:17 | 34.98165 | -91.46232 | 36010 ft | 355 kts | 250° |
| 2026-04-29 20:17 | 34.95896 | -91.51647 | 36041 ft | 363 kts | 250° |
| 2026-04-29 20:18 | 34.93601 | -91.57112 | 36054 ft | 360 kts | 250° |
| 2026-04-29 20:18 | 34.91320 | -91.62539 | 36062 ft | 360 kts | 250° |
| 2026-04-29 20:19 | 34.89052 | -91.67924 | 36060 ft | 360 kts | 250° |
| 2026-04-29 20:19 | 34.86765 | -91.73345 | 36056 ft | 360 kts | 250° |
| 2026-04-29 20:20 | 34.84476 | -91.78764 | 36055 ft | 360 kts | 250° |
| 2026-04-29 20:20 | 34.82186 | -91.84175 | 36057 ft | 360 kts | 250° |
| 2026-04-29 20:21 | 34.79894 | -91.89587 | 36049 ft | 360 kts | 250° |
| 2026-04-29 20:21 | 34.77600 | -91.94995 | 36049 ft | 360 kts | 250° |
| 2026-04-29 20:22 | 34.75302 | -92.00402 | 36054 ft | 360 kts | 250° |
| 2026-04-29 20:22 | 34.73003 | -92.05806 | 36054 ft | 360 kts | 250° |
| 2026-04-29 20:23 | 34.70698 | -92.11215 | 36033 ft | 362 kts | 250° |
| 2026-04-29 20:23 | 34.68373 | -92.16660 | 36050 ft | 366 kts | 250° |
| 2026-04-29 20:24 | 34.66471 | -92.22317 | 36054 ft | 361 kts | 254° |
| 2026-04-29 20:24 | 34.64615 | -92.27988 | 36053 ft | 362 kts | 254° |
| 2026-04-29 20:25 | 34.62732 | -92.33675 | 36030 ft | 365 kts | 254° |
| 2026-04-29 20:25 | 34.60831 | -92.39395 | 36033 ft | 365 kts | 254° |
| 2026-04-29 20:26 | 34.58927 | -92.45113 | 36034 ft | 365 kts | 254° |
| 2026-04-29 20:26 | 34.57021 | -92.50825 | 36033 ft | 365 kts | 254° |
| 2026-04-29 20:27 | 34.55435 | -92.55573 | 36039 ft | 365 kts | 254° |
| 2026-04-29 20:27 | 34.53201 | -92.62245 | 36035 ft | 365 kts | 254° |
| 2026-04-29 20:28 | 34.51287 | -92.67949 | 36022 ft | 366 kts | 253° |
| 2026-04-29 20:28 | 34.49367 | -92.73664 | 36031 ft | 366 kts | 253° |
| 2026-04-29 20:29 | 34.47441 | -92.79383 | 36030 ft | 366 kts | 253° |
| 2026-04-29 20:29 | 34.45514 | -92.85097 | 36030 ft | 366 kts | 253° |
| 2026-04-29 20:30 | 34.43584 | -92.90809 | 35991 ft | 367 kts | 254° |
| 2026-04-29 20:30 | 34.41643 | -92.96540 | 36033 ft | 372 kts | 254° |
| 2026-04-29 20:31 | 34.39682 | -93.02320 | 36028 ft | 371 kts | 254° |
| 2026-04-29 20:31 | 34.37714 | -93.08114 | 36003 ft | 373 kts | 254° |
| 2026-04-29 20:32 | 34.35726 | -93.13950 | 36012 ft | 375 kts | 254° |
| 2026-04-29 20:32 | 34.33737 | -93.19781 | 36012 ft | 374 kts | 253° |
| 2026-04-29 20:33 | 34.31745 | -93.25612 | 36015 ft | 375 kts | 253° |
| 2026-04-29 20:33 | 34.29753 | -93.31430 | 36011 ft | 374 kts | 253° |
| 2026-04-29 20:34 | 34.27757 | -93.37249 | 36008 ft | 374 kts | 253° |
| 2026-04-29 20:34 | 34.25759 | -93.43064 | 36007 ft | 374 kts | 253° |
| 2026-04-29 20:35 | 34.23770 | -93.48840 | 36011 ft | 375 kts | 253° |
| 2026-04-29 20:35 | 34.21767 | -93.54647 | 36001 ft | 374 kts | 253° |
| 2026-04-29 20:36 | 34.19760 | -93.60457 | 36002 ft | 375 kts | 253° |
| 2026-04-29 20:36 | 34.17750 | -93.66265 | 35999 ft | 375 kts | 253° |
| 2026-04-29 20:37 | 34.15737 | -93.72075 | 35953 ft | 375 kts | 253° |
| 2026-04-29 20:37 | 34.13730 | -93.77922 | 35996 ft | 378 kts | 255° |
| 2026-04-29 20:38 | 34.11808 | -93.83815 | 35996 ft | 378 kts | 255° |
| 2026-04-29 20:38 | 34.09869 | -93.89725 | 36001 ft | 379 kts | 255° |
| 2026-04-29 20:39 | 34.07924 | -93.95638 | 36002 ft | 379 kts | 255° |
| 2026-04-29 20:39 | 34.05979 | -94.01542 | 35996 ft | 379 kts | 255° |
| 2026-04-29 20:40 | 34.04032 | -94.07439 | 35993 ft | 379 kts | 255° |
| 2026-04-29 20:40 | 34.02081 | -94.13337 | 35991 ft | 379 kts | 254° |
| 2026-04-29 20:41 | 34.00139 | -94.19196 | 35987 ft | 379 kts | 254° |
| 2026-04-29 20:41 | 33.98182 | -94.25092 | 35984 ft | 379 kts | 254° |
| 2026-04-29 20:42 | 33.96218 | -94.30998 | 35983 ft | 380 kts | 254° |
| 2026-04-29 20:42 | 33.94250 | -94.36901 | 35982 ft | 380 kts | 254° |
| 2026-04-29 20:43 | 33.92279 | -94.42803 | 35983 ft | 379 kts | 254° |
| 2026-04-29 20:43 | 33.90308 | -94.48697 | 35983 ft | 380 kts | 254° |
| 2026-04-29 20:44 | 33.88329 | -94.54600 | 35994 ft | 380 kts | 254° |
| 2026-04-29 20:44 | 33.86364 | -94.60453 | 35936 ft | 380 kts | 254° |
| 2026-04-29 20:45 | 33.84365 | -94.66395 | 35999 ft | 384 kts | 254° |
| 2026-04-29 20:45 | 33.82360 | -94.72342 | 36012 ft | 383 kts | 254° |
| 2026-04-29 20:46 | 33.80355 | -94.78281 | 36020 ft | 383 kts | 254° |
| 2026-04-29 20:46 | 33.78343 | -94.84231 | 35997 ft | 383 kts | 253° |
| 2026-04-29 20:47 | 33.76317 | -94.90163 | 36012 ft | 384 kts | 253° |
| 2026-04-29 20:47 | 33.74624 | -94.95088 | 36009 ft | 384 kts | 253° |
| 2026-04-29 20:48 | 33.72252 | -95.01980 | 36015 ft | 380 kts | 254° |
| 2026-04-29 20:48 | 33.70246 | -95.07796 | 35458 ft | 379 kts | 253° |
| 2026-04-29 20:49 | 33.69234 | -95.10728 | 34695 ft | 381 kts | 253° |
| 2026-04-29 20:49 | 33.68217 | -95.13669 | 33951 ft | 383 kts | 253° |
| 2026-04-29 20:49 | 33.67193 | -95.16631 | 33080 ft | 385 kts | 252° |
| 2026-04-29 20:49 | 33.66164 | -95.19603 | 32242 ft | 386 kts | 252° |
| 2026-04-29 20:50 | 33.65132 | -95.22582 | 31442 ft | 387 kts | 252° |
| 2026-04-29 20:50 | 33.64093 | -95.25575 | 30618 ft | 389 kts | 252° |
| 2026-04-29 20:50 | 33.63053 | -95.28571 | 29964 ft | 386 kts | 251° |
| 2026-04-29 20:50 | 33.62035 | -95.31502 | 29681 ft | 374 kts | 251° |
| 2026-04-29 20:51 | 33.61054 | -95.34324 | 29522 ft | 360 kts | 252° |
| 2026-04-29 20:51 | 33.60102 | -95.37056 | 29133 ft | 352 kts | 252° |
| 2026-04-29 20:51 | 33.59156 | -95.39769 | 28516 ft | 351 kts | 251° |
| 2026-04-29 20:51 | 33.58223 | -95.42456 | 27982 ft | 348 kts | 251° |
| 2026-04-29 20:52 | 33.57303 | -95.45139 | 27363 ft | 348 kts | 251° |
| 2026-04-29 20:52 | 33.56385 | -95.47813 | 26864 ft | 345 kts | 251° |
| 2026-04-29 20:52 | 33.55475 | -95.50459 | 26378 ft | 342 kts | 251° |
| 2026-04-29 20:52 | 33.54573 | -95.53079 | 25899 ft | 339 kts | 250° |
| 2026-04-29 20:53 | 33.53673 | -95.55689 | 25411 ft | 338 kts | 250° |
| 2026-04-29 20:53 | 33.52777 | -95.58288 | 24917 ft | 337 kts | 250° |
| 2026-04-29 20:53 | 33.51882 | -95.60881 | 24431 ft | 336 kts | 250° |
| 2026-04-29 20:53 | 33.51000 | -95.63436 | 23942 ft | 336 kts | 249° |
| 2026-04-29 20:54 | 33.49198 | -95.68647 | 22873 ft | 336 kts | 249° |
| 2026-04-29 20:54 | 33.48303 | -95.71204 | 22234 ft | 338 kts | 249° |
| 2026-04-29 20:54 | 33.47392 | -95.73805 | 21697 ft | 337 kts | 249° |
| 2026-04-29 20:55 | 33.46485 | -95.76394 | 21202 ft | 336 kts | 249° |
| 2026-04-29 20:55 | 33.45580 | -95.78972 | 20674 ft | 337 kts | 249° |
| 2026-04-29 20:55 | 33.44672 | -95.81560 | 20134 ft | 337 kts | 249° |
| 2026-04-29 20:55 | 33.44058 | -95.83308 | 19767 ft | 338 kts | 250° |
| 2026-04-29 20:56 | 33.43143 | -95.85911 | 19218 ft | 339 kts | 250° |
| 2026-04-29 20:56 | 33.42236 | -95.88488 | 18671 ft | 341 kts | 250° |
| 2026-04-29 20:56 | 33.41314 | -95.91109 | 18088 ft | 343 kts | 250° |
| 2026-04-29 20:56 | 33.40373 | -95.93775 | 17468 ft | 344 kts | 250° |
| 2026-04-29 20:57 | 33.39455 | -95.96378 | 16898 ft | 343 kts | 250° |
| 2026-04-29 20:57 | 33.38526 | -95.99010 | 16339 ft | 343 kts | 249° |
| 2026-04-29 20:57 | 33.37597 | -96.01643 | 15783 ft | 343 kts | 249° |
| 2026-04-29 20:57 | 33.36668 | -96.04267 | 15229 ft | 343 kts | 249° |
| 2026-04-29 20:58 | 33.35738 | -96.06896 | 14677 ft | 343 kts | 249° |
| 2026-04-29 20:58 | 33.34808 | -96.09525 | 14126 ft | 343 kts | 248° |
| 2026-04-29 20:58 | 33.33881 | -96.12139 | 13528 ft | 337 kts | 248° |
| 2026-04-29 20:58 | 33.32982 | -96.14677 | 12956 ft | 325 kts | 248° |
| 2026-04-29 20:59 | 33.32115 | -96.17120 | 12377 ft | 314 kts | 248° |
| 2026-04-29 20:59 | 33.31275 | -96.19480 | 11884 ft | 304 kts | 248° |
| 2026-04-29 20:59 | 33.30464 | -96.21764 | 11425 ft | 293 kts | 248° |
| 2026-04-29 20:59 | 33.29676 | -96.23977 | 10962 ft | 285 kts | 249° |
| 2026-04-29 21:00 | 33.28911 | -96.26126 | 10507 ft | 278 kts | 248° |
| 2026-04-29 21:00 | 33.28162 | -96.28229 | 10072 ft | 274 kts | 248° |
| 2026-04-29 21:00 | 33.27411 | -96.30335 | 9594 ft | 278 kts | 248° |
| 2026-04-29 21:00 | 33.26646 | -96.32479 | 9103 ft | 281 kts | 248° |
| 2026-04-29 21:01 | 33.25645 | -96.34456 | 8901 ft | 276 kts | 234° |
| 2026-04-29 21:01 | 33.24486 | -96.36220 | 8848 ft | 265 kts | 234° |
| 2026-04-29 21:01 | 33.23351 | -96.37963 | 8800 ft | 267 kts | 234° |
| 2026-04-29 21:01 | 33.22212 | -96.39714 | 8739 ft | 267 kts | 234° |
| 2026-04-29 21:02 | 33.21087 | -96.41442 | 8669 ft | 266 kts | 234° |
| 2026-04-29 21:02 | 33.19937 | -96.43210 | 8607 ft | 266 kts | 234° |
| 2026-04-29 21:02 | 33.18806 | -96.44948 | 8528 ft | 266 kts | 234° |
| 2026-04-29 21:02 | 33.17686 | -96.46701 | 8458 ft | 265 kts | 237° |
| 2026-04-29 21:03 | 33.16634 | -96.48507 | 8373 ft | 264 kts | 237° |
| 2026-04-29 21:03 | 33.15581 | -96.50309 | 8311 ft | 265 kts | 237° |
| 2026-04-29 21:03 | 33.14540 | -96.52083 | 8240 ft | 264 kts | 236° |
| 2026-04-29 21:03 | 33.13482 | -96.53879 | 8171 ft | 264 kts | 237° |
| 2026-04-29 21:04 | 33.12425 | -96.55674 | 8109 ft | 264 kts | 236° |
| 2026-04-29 21:04 | 33.11371 | -96.57460 | 8033 ft | 263 kts | 236° |
| 2026-04-29 21:04 | 33.10264 | -96.59202 | 7957 ft | 264 kts | 226° |
| 2026-04-29 21:04 | 33.08684 | -96.60323 | 7890 ft | 270 kts | 200° |
| 2026-04-29 21:05 | 33.06788 | -96.60475 | 7828 ft | 279 kts | 177° |
| 2026-04-29 21:05 | 33.04861 | -96.60044 | 7618 ft | 284 kts | 173° |
| 2026-04-29 21:05 | 33.02922 | -96.59550 | 7265 ft | 284 kts | 172° |
| 2026-04-29 21:05 | 33.00999 | -96.59073 | 7012 ft | 280 kts | 172° |
| 2026-04-29 21:06 | 32.99264 | -96.58645 | 6806 ft | 278 kts | 172° |
| 2026-04-29 21:06 | 32.97370 | -96.58190 | 6568 ft | 277 kts | 172° |
| 2026-04-29 21:06 | 32.95481 | -96.57754 | 6345 ft | 275 kts | 172° |
| 2026-04-29 21:06 | 32.93605 | -96.57321 | 6090 ft | 274 kts | 172° |
| 2026-04-29 21:07 | 32.91734 | -96.56896 | 5852 ft | 273 kts | 173° |
| 2026-04-29 21:07 | 32.89872 | -96.56476 | 5617 ft | 272 kts | 172° |
| 2026-04-29 21:07 | 32.88012 | -96.56056 | 5349 ft | 272 kts | 173° |
| 2026-04-29 21:07 | 32.86150 | -96.55646 | 5110 ft | 272 kts | 172° |
| 2026-04-29 21:08 | 32.84290 | -96.55254 | 4876 ft | 271 kts | 172° |
| 2026-04-29 21:08 | 32.82447 | -96.54857 | 4637 ft | 269 kts | 173° |
| 2026-04-29 21:08 | 32.80616 | -96.54459 | 4379 ft | 265 kts | 172° |
| 2026-04-29 21:08 | 32.78807 | -96.54099 | 4124 ft | 262 kts | 172° |
| 2026-04-29 21:09 | 32.77010 | -96.53872 | 3866 ft | 258 kts | 185° |
| 2026-04-29 21:09 | 32.75325 | -96.54497 | 3584 ft | 254 kts | 213° |
| 2026-04-29 21:09 | 32.73989 | -96.55841 | 3354 ft | 250 kts | 225° |
| 2026-04-29 21:09 | 32.72763 | -96.57297 | 3106 ft | 249 kts | 226° |
| 2026-04-29 21:10 | 32.71569 | -96.58732 | 3003 ft | 239 kts | 226° |
| 2026-04-29 21:10 | 32.70417 | -96.60101 | 2991 ft | 233 kts | 225° |
| 2026-04-29 21:10 | 32.69284 | -96.61472 | 2991 ft | 232 kts | 230° |
| 2026-04-29 21:10 | 32.68585 | -96.63139 | 2925 ft | 225 kts | 263° |
| 2026-04-29 21:11 | 32.68544 | -96.64972 | 2903 ft | 218 kts | 275° |
| 2026-04-29 21:11 | 32.68765 | -96.66674 | 2831 ft | 202 kts | 297° |
| 2026-04-29 21:11 | 32.69479 | -96.68012 | 2744 ft | 186 kts | 314° |
| 2026-04-29 21:11 | 32.70323 | -96.69121 | 2595 ft | 178 kts | 318° |
| 2026-04-29 21:12 | 32.71182 | -96.70160 | 2572 ft | 176 kts | 319° |
| 2026-04-29 21:12 | 32.72063 | -96.71194 | 2508 ft | 181 kts | 321° |
| 2026-04-29 21:12 | 32.72971 | -96.72247 | 2392 ft | 188 kts | 321° |
| 2026-04-29 21:12 | 32.73929 | -96.73355 | 2213 ft | 196 kts | 320° |
| 2026-04-29 21:13 | 32.74905 | -96.74487 | 2076 ft | 194 kts | 320° |
| 2026-04-29 21:13 | 32.75842 | -96.75578 | 2039 ft | 181 kts | 320° |
| 2026-04-29 21:13 | 32.76706 | -96.76581 | 2138 ft | 166 kts | 320° |
| 2026-04-29 21:13 | 32.77524 | -96.77526 | 2115 ft | 163 kts | 320° |
| 2026-04-29 21:14 | 32.78321 | -96.78448 | 1893 ft | 156 kts | 321° |
| 2026-04-29 21:14 | 32.79074 | -96.79324 | 1724 ft | 150 kts | 321° |
| 2026-04-29 21:14 | 32.79814 | -96.80182 | 1497 ft | 146 kts | 320° |
| 2026-04-29 21:14 | 32.80520 | -96.81001 | 1278 ft | 142 kts | 320° |
| 2026-04-29 21:15 | 32.81226 | -96.81829 | 1089 ft | 146 kts | 321° |
| 2026-04-29 21:15 | 32.81969 | -96.82695 | 915 ft | 151 kts | 319° |
| 2026-04-29 21:15 | 32.82705 | -96.83554 | 691 ft | 147 kts | 322° |
| 2026-04-29 21:15 | 32.83427 | -96.84367 | 519 ft | 141 kts | 319° |
| 2026-04-29 21:16 | 32.84087 | -96.85138 | 486 ft | 116 kts | 316° |
| 2026-04-29 21:16 | 32.84500 | -96.85613 | 483 ft | 50 kts | 316° |
| 2026-04-29 21:16 | 32.84656 | -96.85794 | 483 ft | 13 kts | 315° |
| 2026-04-29 21:16 | 32.84723 | -96.85872 | 487 ft | 7 kts | 316° |
| 2026-04-29 21:17 | 32.84765 | -96.85892 | 479 ft | 8 kts | 9° |
| 2026-04-29 21:17 | 32.84801 | -96.85869 | 478 ft | 4 kts | 42° |
| 2026-04-29 21:17 | 32.84819 | -96.85834 | 486 ft | 6 kts | 78° |
| 2026-04-29 21:17 | 32.84805 | -96.85786 | 478 ft | 7 kts | 126° |
| 2026-04-29 21:18 | 32.84763 | -96.85734 | 486 ft | 10 kts | 135° |
| 2026-04-29 21:18 | 32.84707 | -96.85669 | 479 ft | 13 kts | 136° |
| 2026-04-29 21:18 | 32.84636 | -96.85587 | 486 ft | 16 kts | 135° |
| 2026-04-29 21:18 | 32.84568 | -96.85508 | 484 ft | 13 kts | 135° |
| 2026-04-29 21:19 | 32.84499 | -96.85429 | 484 ft | 13 kts | 136° |
| 2026-04-29 21:19 | 32.84464 | -96.85369 | 485 ft | 6 kts | 76° |
| 2026-04-29 21:19 | 32.84500 | -96.85347 | 484 ft | 7 kts | 7° |
| 2026-04-29 21:19 | 32.84557 | -96.85341 | 481 ft | 10 kts | 5° |
| 2026-04-29 21:20 | 32.84632 | -96.85332 | 484 ft | 12 kts | 6° |
| 2026-04-29 21:20 | 32.84720 | -96.85317 | 485 ft | 12 kts | 22° |
| 2026-04-29 21:20 | 32.84748 | -96.85234 | 481 ft | 13 kts | 92° |
| 2026-04-29 21:20 | 32.84745 | -96.85169 | 486 ft | 5 kts | 102° |
| 2026-04-29 21:21 | 32.84717 | -96.85141 | 486 ft | 7 kts | 167° |
| 2026-04-29 21:21 | 32.84680 | -96.85139 | 486 ft | 3 kts | 180° |
| 2026-04-29 21:21 | 32.84656 | -96.85140 | 484 ft | 2 kts | 180° |
| 2026-04-29 21:21 | 32.84650 | -96.85140 | 484 ft | 0 kts | 180° |